Time,TemperatureF,DewpointF,PressureIn,WindDirection,WindDirectionDegrees,WindSpeedMPH,WindSpeedGustMPH,Humidity,HourlyPrecipIn,Conditions,Clouds,dailyrainin,SolarRadiationWatts/m^2,SoftwareType,DateUTC
2013-03-15 00:00:00,30.0,24.0,-100.00,WSW,247,11.0,-999.0,80,-99.99,,,-99.99,0.000000,,2013-03-15 05:00:00,
2013-03-15 00:42:00,30.0,24.0,-100.00,WSW,247,11.0,-999.0,80,-99.99,,,-99.99,0.000000,,2013-03-15 05:42:00,
2013-03-15 00:52:00,30.0,24.0,-100.00,WSW,247,11.0,-999.0,80,-99.99,,,-99.99,0.000000,,2013-03-15 05:52:00,
2013-03-15 01:00:00,31.0,25.0,-100.00,WSW,247,13.0,-999.0,79,-99.99,,,-99.99,0.000000,,2013-03-15 06:00:00,
2013-03-15 01:42:00,31.0,25.0,-100.00,WSW,247,13.0,-999.0,79,-99.99,,,-99.99,0.000000,,2013-03-15 06:42:00,
2013-03-15 01:53:00,31.0,25.0,-100.00,WSW,247,13.0,-999.0,79,-99.99,,,-99.99,0.000000,,2013-03-15 06:53:00,
2013-03-15 02:00:00,31.0,26.0,-100.00,West,270,14.0,-999.0,80,-99.99,,,-99.99,0.000000,,2013-03-15 07:00:00,
2013-03-15 02:42:00,31.0,26.0,-100.00,West,270,14.0,-999.0,80,-99.99,,,-99.99,0.000000,,2013-03-15 07:42:00,
2013-03-15 02:52:00,31.0,26.0,-100.00,West,270,14.0,-999.0,80,-99.99,,,-99.99,0.000000,,2013-03-15 07:52:00,
2013-03-15 03:00:00,30.0,26.0,-100.00,West,270,13.0,-999.0,82,-99.99,,,-99.99,0.000000,,2013-03-15 08:00:00,
2013-03-15 03:42:00,30.0,26.0,-100.00,West,270,13.0,-999.0,82,-99.99,,,-99.99,0.000000,,2013-03-15 08:42:00,
2013-03-15 03:52:00,30.0,26.0,-100.00,West,270,13.0,-999.0,82,-99.99,,,-99.99,0.000000,,2013-03-15 08:52:00,
2013-03-15 04:00:00,30.0,26.0,-100.00,West,270,10.0,-999.0,83,-99.99,,,-99.99,0.000000,,2013-03-15 09:00:00,
2013-03-15 04:33:00,30.0,26.0,-100.00,West,270,10.0,-999.0,83,-99.99,,,-99.99,0.000000,,2013-03-15 09:33:00,
2013-03-15 04:43:00,30.0,26.0,-100.00,West,270,10.0,-999.0,83,-99.99,,,-99.99,0.000000,,2013-03-15 09:43:00,
2013-03-15 04:53:00,30.0,26.0,-100.00,West,270,10.0,-999.0,83,-99.99,,,-99.99,0.000000,,2013-03-15 09:53:00,
2013-03-15 05:00:00,31.0,26.0,-100.00,WSW,247,7.0,-999.0,83,-99.99,,,-99.99,0.000000,,2013-03-15 10:00:00,
2013-03-15 05:43:00,31.0,26.0,-100.00,WSW,247,7.0,-999.0,83,-99.99,,,-99.99,0.000000,,2013-03-15 10:43:00,
2013-03-15 05:52:00,31.0,26.0,-100.00,WSW,247,7.0,-999.0,83,-99.99,,,-99.99,0.000000,,2013-03-15 10:52:00,
2013-03-15 06:00:00,31.0,26.0,-100.00,WSW,247,5.0,-999.0,83,-99.99,,,-99.99,0.000000,,2013-03-15 11:00:00,
2013-03-15 06:42:00,31.0,26.0,-100.00,WSW,247,5.0,-999.0,83,-99.99,,,-99.99,0.000000,,2013-03-15 11:42:00,
2013-03-15 06:52:00,31.0,26.0,-100.00,WSW,247,5.0,-999.0,83,-99.99,,,-99.99,0.000000,,2013-03-15 11:52:00,
2013-03-15 07:00:00,31.0,26.0,-100.00,West,270,5.0,-999.0,83,-99.99,,,-99.99,0.000000,,2013-03-15 12:00:00,
2013-03-15 07:42:00,31.0,26.0,-100.00,West,270,5.0,-999.0,83,-99.99,,,-99.99,0.000000,,2013-03-15 12:42:00,
2013-03-15 07:52:00,31.0,26.0,-100.00,West,270,5.0,-999.0,83,-99.99,,,-99.99,0.000000,,2013-03-15 12:52:00,
2013-03-15 08:00:00,31.0,27.0,-100.00,NNW,337,7.0,-999.0,84,-99.99,,,-99.99,13.920000,,2013-03-15 13:00:00,
2013-03-15 08:42:00,31.0,27.0,-100.00,NNW,337,7.0,-999.0,84,-99.99,,,-99.99,13.920000,,2013-03-15 13:42:00,
2013-03-15 08:53:00,31.0,27.0,-100.00,NNW,337,7.0,-999.0,84,-99.99,,,-99.99,13.920000,,2013-03-15 13:53:00,
2013-03-15 09:00:00,29.0,25.0,-100.00,NNE,22,8.0,-999.0,84,-99.99,,,-99.99,60.320000,,2013-03-15 14:00:00,
2013-03-15 09:42:00,29.0,25.0,-100.00,NNE,22,8.0,-999.0,84,-99.99,,,-99.99,60.320000,,2013-03-15 14:42:00,
2013-03-15 09:53:00,29.0,25.0,-100.00,NNE,22,8.0,-999.0,84,-99.99,,,-99.99,60.320000,,2013-03-15 14:53:00,
2013-03-15 10:00:00,29.0,23.0,-100.00,NNE,22,8.0,-999.0,78,-99.99,,,-99.99,132.240005,,2013-03-15 15:00:00,
2013-03-15 10:43:00,29.0,23.0,-100.00,NNE,22,8.0,-999.0,78,-99.99,,,-99.99,132.240005,,2013-03-15 15:43:00,
2013-03-15 10:53:00,29.0,23.0,-100.00,NNE,22,8.0,-999.0,78,-99.99,,,-99.99,132.240005,,2013-03-15 15:53:00,
2013-03-15 11:00:00,30.0,21.0,-100.00,NNE,22,10.0,-999.0,68,-99.99,,,-99.99,299.279999,,2013-03-15 16:00:00,
2013-03-15 11:42:00,30.0,21.0,-100.00,NNE,22,10.0,-999.0,68,-99.99,,,-99.99,299.279999,,2013-03-15 16:42:00,
2013-03-15 11:52:00,30.0,21.0,-100.00,NNE,22,10.0,-999.0,68,-99.99,,,-99.99,299.279999,,2013-03-15 16:52:00,
2013-03-15 12:00:00,31.0,20.0,-100.00,NNE,22,9.0,-999.0,63,-99.99,,,-99.99,488.359985,,2013-03-15 17:00:00,
2013-03-15 12:43:00,31.0,20.0,-100.00,NNE,22,9.0,-999.0,63,-99.99,,,-99.99,488.359985,,2013-03-15 17:43:00,
2013-03-15 12:53:00,31.0,20.0,-100.00,NNE,22,9.0,-999.0,63,-99.99,,,-99.99,488.359985,,2013-03-15 17:53:00,
2013-03-15 13:00:00,33.0,19.0,-100.00,NNE,22,7.0,-999.0,57,-99.99,,,-99.99,631.039978,,2013-03-15 18:00:00,
2013-03-15 13:42:00,33.0,19.0,-100.00,NNE,22,7.0,-999.0,57,-99.99,,,-99.99,631.039978,,2013-03-15 18:42:00,
2013-03-15 13:52:00,33.0,19.0,-100.00,NNE,22,7.0,-999.0,57,-99.99,,,-99.99,631.039978,,2013-03-15 18:52:00,
2013-03-15 14:00:00,32.0,19.0,-100.00,NE,45,8.0,-999.0,57,-99.99,,,-99.99,707.599976,,2013-03-15 19:00:00,
2013-03-15 14:42:00,32.0,19.0,-100.00,NE,45,8.0,-999.0,57,-99.99,,,-99.99,707.599976,,2013-03-15 19:42:00,
2013-03-15 14:52:00,32.0,19.0,-100.00,NE,45,8.0,-999.0,57,-99.99,,,-99.99,707.599976,,2013-03-15 19:52:00,
2013-03-15 15:00:00,32.0,17.0,-100.00,NNE,22,8.0,-999.0,54,-99.99,,,-99.99,619.440002,,2013-03-15 20:00:00,
2013-03-15 15:42:00,32.0,17.0,-100.00,NNE,22,8.0,-999.0,54,-99.99,,,-99.99,619.440002,,2013-03-15 20:42:00,
2013-03-15 15:52:00,32.0,17.0,-100.00,NNE,22,8.0,-999.0,54,-99.99,,,-99.99,619.440002,,2013-03-15 20:52:00,
2013-03-15 16:00:00,31.0,17.0,-100.00,NNE,22,8.0,-999.0,55,-99.99,,,-99.99,481.399994,,2013-03-15 21:00:00,
2013-03-15 16:43:00,31.0,17.0,-100.00,NNE,22,8.0,-999.0,55,-99.99,,,-99.99,481.399994,,2013-03-15 21:43:00,
2013-03-15 16:53:00,31.0,17.0,-100.00,NNE,22,8.0,-999.0,55,-99.99,,,-99.99,481.399994,,2013-03-15 21:53:00,
2013-03-15 17:00:00,29.0,16.0,-100.00,NE,45,9.0,-999.0,57,-99.99,,,-99.99,270.279999,,2013-03-15 22:00:00,
2013-03-15 17:42:00,29.0,16.0,-100.00,NE,45,9.0,-999.0,57,-99.99,,,-99.99,270.279999,,2013-03-15 22:42:00,
2013-03-15 17:53:00,29.0,16.0,-100.00,NE,45,9.0,-999.0,57,-99.99,,,-99.99,270.279999,,2013-03-15 22:53:00,
2013-03-15 18:00:00,27.0,15.0,-100.00,NE,45,8.0,-999.0,60,-99.99,,,-99.99,70.760002,,2013-03-15 23:00:00,
2013-03-15 18:42:00,27.0,15.0,-100.00,NE,45,8.0,-999.0,60,-99.99,,,-99.99,70.760002,,2013-03-15 23:42:00,
2013-03-15 18:53:00,27.0,15.0,-100.00,NE,45,8.0,-999.0,60,-99.99,,,-99.99,70.760002,,2013-03-15 23:53:00,
2013-03-15 20:00:00,25.0,14.0,-100.00,NE,45,9.0,-999.0,62,-99.99,,,-99.99,0.000000,,2013-03-16 01:00:00,
2013-03-15 20:42:00,25.0,14.0,-100.00,NE,45,9.0,-999.0,62,-99.99,,,-99.99,0.000000,,2013-03-16 01:42:00,
2013-03-15 20:53:00,25.0,14.0,-100.00,NE,45,9.0,-999.0,62,-99.99,,,-99.99,0.000000,,2013-03-16 01:53:00,
2013-03-15 21:00:00,24.0,14.0,-100.00,NE,45,10.0,-999.0,65,-99.99,,,-99.99,0.000000,,2013-03-16 02:00:00,
2013-03-15 21:43:00,24.0,14.0,-100.00,NE,45,10.0,-999.0,65,-99.99,,,-99.99,0.000000,,2013-03-16 02:43:00,
2013-03-15 21:52:00,24.0,14.0,-100.00,NE,45,10.0,-999.0,65,-99.99,,,-99.99,0.000000,,2013-03-16 02:52:00,
2013-03-15 22:00:00,22.0,14.0,-100.00,NNE,22,9.0,-999.0,71,-99.99,,,-99.99,0.000000,,2013-03-16 03:00:00,
2013-03-15 22:43:00,22.0,14.0,-100.00,NNE,22,9.0,-999.0,71,-99.99,,,-99.99,0.000000,,2013-03-16 03:43:00,
2013-03-15 22:53:00,22.0,14.0,-100.00,NNE,22,9.0,-999.0,71,-99.99,,,-99.99,0.000000,,2013-03-16 03:53:00,
2013-03-15 23:00:00,19.0,16.0,-100.00,NNE,22,8.0,-999.0,87,-99.99,,,-99.99,0.000000,,2013-03-16 04:00:00,
2013-03-15 23:43:00,19.0,16.0,-100.00,NNE,22,8.0,-999.0,87,-99.99,,,-99.99,0.000000,,2013-03-16 04:43:00,
2013-03-15 23:53:00,19.0,16.0,-100.00,NNE,22,8.0,-999.0,87,-99.99,,,-99.99,0.000000,,2013-03-16 04:53:00,